Aviation Digital Data Service (ADDS)

Output produced by METARs form (2153 UTC 19 February 2018)
found at http://www.aviationweather.gov/adds/metars/
 
KMSS 192053Z AUTO 00000KT 8SM -RA SCT035 OVC060 05/02 A3012 RMK AO2 SLP205 P0002 60002 T00500022 58008
KMSS 191953Z AUTO 22004KT 10SM -RA OVC070 08/M01 A3014 RMK AO2 RAB31 SLP210 P0000 T00781006
KMSS 191720Z 1918/2018 20010G22KT P6SM SCT140 
     FM191900 19005KT P6SM BKN090 
     FM192100 VRB03KT P6SM VCSH OVC035 
     FM200000 VRB03KT 6SM -RA BR OVC025 
     FM200300 VRB03KT 5SM -RA BR OVC008 
     FM200800 07004KT 4SM -RA BR OVC005